Time;durP1;ratioP1;P1;durP2;ratioP2;P2;SDS_P1;SDS_P2;PMS_P1;PMS_P2;Temp;Humidity;BMP_temperature;BMP_pressure;BME280_temperature;BME280_humidity;BME280_pressure;Samples;Min_cycle;Max_cycle;Signal;HPM_P1;HPM_P2
2020/12/02 00:02:17;;;;;;;51.70;26.75;;;1.10;99.90;;;;;;5112333;28;20036;-67
2020/12/02 00:04:43;;;;;;;55.30;27.23;;;1.20;99.90;;;;;;5111558;28;20048;-66
2020/12/02 00:07:10;;;;;;;58.33;26.45;;;1.20;99.90;;;;;;5112058;28;20056;-66
2020/12/02 00:09:36;;;;;;;57.00;26.77;;;1.30;99.90;;;;;;5112901;28;20062;-67
2020/12/02 00:12:03;;;;;;;59.90;26.42;;;1.20;99.90;;;;;;5104734;28;20043;-67
2020/12/02 00:14:30;;;;;;;61.03;27.20;;;1.20;99.90;;;;;;5112298;28;20378;-67
2020/12/02 00:16:57;;;;;;;56.03;26.60;;;1.20;99.90;;;;;;5112237;28;20044;-67
2020/12/02 00:19:24;;;;;;;54.25;25.40;;;1.20;99.90;;;;;;5112057;28;20058;-66
2020/12/02 00:22:04;;;;;;;61.63;28.63;;;1.30;99.90;;;;;;5111727;28;20051;-66
2020/12/02 00:24:33;;;;;;;54.78;26.98;;;1.30;99.90;;;;;;5111395;28;20048;-66
2020/12/02 00:27:13;;;;;;;55.38;25.98;;;1.30;99.90;;;;;;5110359;28;20066;-66
2020/12/02 00:29:41;;;;;;;56.58;27.17;;;1.30;99.90;;;;;;5111684;28;20067;-67
2020/12/02 00:32:08;;;;;;;54.38;25.95;;;1.30;99.90;;;;;;5120881;27;20047;-66
2020/12/02 00:34:34;;;;;;;58.17;26.83;;;1.30;99.90;;;;;;5111666;28;20047;-66
2020/12/02 00:37:01;;;;;;;60.65;27.88;;;1.30;99.90;;;;;;5111990;28;20405;-66
2020/12/02 00:39:27;;;;;;;61.00;27.80;;;1.20;99.90;;;;;;5111885;28;20058;-66
2020/12/02 00:41:54;;;;;;;58.58;27.77;;;1.20;99.90;;;;;;5111842;28;20059;-66
2020/12/02 00:44:20;;;;;;;62.22;29.38;;;1.20;99.90;;;;;;5093602;28;20054;-66
2020/12/02 00:46:48;;;;;;;62.42;28.45;;;1.10;99.90;;;;;;5099251;28;20080;-67
2020/12/02 00:49:15;;;;;;;64.53;28.13;;;1.10;99.90;;;;;;5111764;28;20467;-66
2020/12/02 00:51:42;;;;;;;66.00;29.73;;;1.10;99.90;;;;;;5111513;28;20058;-67
2020/12/02 00:54:09;;;;;;;58.80;27.85;;;1.10;99.90;;;;;;5111719;28;20055;-66
2020/12/02 00:56:39;;;;;;;62.15;29.63;;;1.10;99.90;;;;;;5111068;28;20046;-66
2020/12/02 00:59:15;;;;;;;62.90;28.20;;;1.00;99.90;;;;;;5111235;28;20043;-66
2020/12/02 01:01:47;;;;;;;68.15;28.30;;;1.00;99.90;;;;;;5111467;28;20044;-66
2020/12/02 01:04:17;;;;;;;67.30;29.00;;;1.00;99.90;;;;;;5111779;28;20047;-65
2020/12/02 01:06:47;;;;;;;73.22;27.95;;;1.00;99.90;;;;;;5110710;28;20047;-66
2020/12/02 01:09:17;;;;;;;68.45;27.08;;;0.90;99.90;;;;;;5111687;28;20043;-66
2020/12/02 01:11:45;;;;;;;65.85;28.15;;;1.00;99.90;;;;;;5110977;28;20421;-66
2020/12/02 01:14:15;;;;;;;74.15;29.30;;;0.90;99.90;;;;;;5111675;28;20055;-66
2020/12/02 01:16:47;;;;;;;64.65;29.73;;;0.90;99.90;;;;;;5110373;28;20054;-66
2020/12/02 01:19:18;;;;;;;64.78;27.35;;;0.90;99.90;;;;;;5111614;28;20044;-64
2020/12/02 01:22:09;;;;;;;68.88;29.45;;;0.90;99.90;;;;;;5111432;28;20058;-64
2020/12/02 01:25:16;;;;;;;64.85;27.98;;;0.90;99.90;;;;;;5098861;28;20142;-64
2020/12/02 01:27:52;;;;;;;66.65;28.65;;;0.90;99.90;;;;;;5035830;28;20423;-64
2020/12/02 01:30:20;;;;;;;65.97;27.38;;;0.90;99.90;;;;;;5049511;28;20048;-65
2020/12/02 01:32:47;;;;;;;67.20;29.65;;;0.90;99.90;;;;;;5045532;28;20050;-64
2020/12/02 01:35:18;;;;;;;69.53;30.30;;;0.90;99.90;;;;;;5047434;28;20053;-65
2020/12/02 01:37:50;;;;;;;64.55;28.60;;;0.90;99.90;;;;;;5047247;28;20124;-64
2020/12/02 01:40:22;;;;;;;66.85;28.30;;;0.90;99.90;;;;;;5048168;28;20490;-65
2020/12/02 01:43:01;;;;;;;70.25;29.88;;;0.80;99.90;;;;;;5047818;28;20040;-64
2020/12/02 01:45:38;;;;;;;67.38;27.83;;;0.90;99.90;;;;;;5047320;28;20484;-64
2020/12/02 01:48:38;;;;;;;63.58;28.05;;;0.80;99.90;;;;;;5052078;28;20044;-64
2020/12/02 01:51:08;;;;;;;69.47;28.83;;;0.80;99.90;;;;;;5042043;28;20435;-64
2020/12/02 01:53:49;;;;;;;62.35;28.13;;;0.80;99.90;;;;;;5046577;28;20415;-64
2020/12/02 01:56:22;;;;;;;60.47;26.97;;;0.80;99.90;;;;;;5047108;28;20739;-64
2020/12/02 01:59:11;;;;;;;64.95;28.52;;;0.80;99.90;;;;;;5047137;28;20278;-66
2020/12/02 02:01:59;;;;;;;59.10;27.55;;;0.80;99.90;;;;;;5071347;28;20048;-66
2020/12/02 02:04:34;;;;;;;58.55;27.20;;;0.80;99.90;;;;;;5110145;28;20043;-64
2020/12/02 02:07:04;;;;;;;56.75;27.88;;;0.80;99.90;;;;;;5104484;28;20084;-65
2020/12/02 02:09:32;;;;;;;60.53;29.20;;;0.90;99.90;;;;;;5110760;28;20055;-65
2020/12/02 02:12:29;;;;;;;55.92;28.13;;;0.90;99.90;;;;;;5109936;28;20071;-64
2020/12/02 02:15:26;;;;;;;62.30;27.83;;;0.90;99.90;;;;;;5109920;28;20067;-64
2020/12/02 02:17:58;;;;;;;58.65;28.25;;;0.90;99.90;;;;;;5110396;28;20044;-64
2020/12/02 02:20:31;;;;;;;61.40;26.85;;;0.90;99.90;;;;;;5109693;28;20055;-64
2020/12/02 02:22:58;;;;;;;56.13;26.38;;;1.00;99.90;;;;;;5108425;28;20052;-66
2020/12/02 02:25:25;;;;;;;63.33;27.67;;;0.90;99.90;;;;;;5109765;28;20047;-63
2020/12/02 02:27:55;;;;;;;61.67;29.17;;;1.00;99.90;;;;;;5109967;28;20056;-63
2020/12/02 02:30:22;;;;;;;59.05;26.95;;;1.00;99.90;;;;;;5107806;28;20043;-69
2020/12/02 02:32:50;;;;;;;55.72;26.98;;;1.00;99.90;;;;;;5109644;28;20179;-69
2020/12/02 02:35:17;;;;;;;62.92;27.60;;;1.00;99.90;;;;;;5109654;28;20070;-69
2020/12/02 02:37:44;;;;;;;62.53;27.63;;;1.00;99.90;;;;;;5107561;28;20077;-67
2020/12/02 02:40:13;;;;;;;52.80;26.50;;;1.00;99.90;;;;;;5110361;28;20044;-69
2020/12/02 02:42:46;;;;;;;54.33;26.40;;;1.00;99.90;;;;;;5110063;28;20044;-69
2020/12/02 02:45:15;;;;;;;61.47;28.00;;;1.00;99.90;;;;;;5110129;28;20074;-67
2020/12/02 02:47:41;;;;;;;54.80;27.65;;;1.10;99.90;;;;;;5109397;28;20077;-66
2020/12/02 02:50:12;;;;;;;57.88;27.45;;;1.10;99.90;;;;;;5109136;28;20046;-67
2020/12/02 02:52:42;;;;;;;58.85;27.75;;;1.10;99.90;;;;;;5109650;28;20066;-66
2020/12/02 02:55:21;;;;;;;55.38;27.67;;;1.10;99.90;;;;;;5109874;28;20132;-66
2020/12/02 02:57:48;;;;;;;57.35;27.98;;;1.10;99.90;;;;;;5109353;28;20055;-66
2020/12/02 03:00:20;;;;;;;59.10;29.00;;;1.10;99.90;;;;;;5109990;28;20043;-67
2020/12/02 03:02:46;;;;;;;;;;;1.10;99.90;;;;;;5114623;28;20417;-66
2020/12/02 03:05:15;;;;;;;59.05;29.05;;;1.10;99.90;;;;;;5113362;28;20373;-66
2020/12/02 03:07:43;;;;;;;58.38;27.60;;;1.10;99.90;;;;;;5113785;28;20052;-66
2020/12/02 03:10:15;;;;;;;56.80;27.05;;;1.20;99.90;;;;;;5113820;28;20050;-66
2020/12/02 03:12:45;;;;;;;57.00;28.45;;;1.20;99.90;;;;;;5114217;28;20058;-66
2020/12/02 03:15:12;;;;;;;54.25;26.52;;;1.20;99.90;;;;;;5112836;28;20039;-67
2020/12/02 03:17:38;;;;;;;54.28;25.73;;;1.20;99.90;;;;;;5113080;28;20047;-66
2020/12/02 03:20:16;;;;;;;51.13;26.20;;;1.20;99.90;;;;;;5109719;28;20051;-66
2020/12/02 03:22:43;;;;;;;54.05;26.52;;;1.20;99.90;;;;;;5113092;28;20506;-66
2020/12/02 03:25:19;;;;;;;52.38;26.30;;;1.30;99.90;;;;;;5108522;28;20051;-66
2020/12/02 03:27:46;;;;;;;54.25;25.75;;;1.30;99.90;;;;;;5112734;28;20058;-66
2020/12/02 03:30:13;;;;;;;55.00;27.25;;;1.40;99.90;;;;;;5113704;28;20044;-66
2020/12/02 03:32:39;;;;;;;51.80;26.67;;;1.40;99.90;;;;;;5111474;28;20376;-67
2020/12/02 03:35:08;;;;;;;50.03;25.02;;;1.40;99.90;;;;;;5111893;28;20048;-66
2020/12/02 03:37:35;;;;;;;49.83;26.33;;;1.40;99.90;;;;;;5112375;28;20063;-66
2020/12/02 03:40:04;;;;;;;57.38;27.15;;;1.50;99.90;;;;;;5112638;28;20051;-66
2020/12/02 03:42:31;;;;;;;53.35;27.17;;;1.50;99.90;;;;;;5107169;28;20054;-66
2020/12/02 03:44:57;;;;;;;51.13;26.63;;;1.50;99.90;;;;;;5113092;28;20043;-66
2020/12/02 03:47:23;;;;;;;54.60;28.45;;;1.50;99.90;;;;;;5112564;28;20413;-66
2020/12/02 03:49:50;;;;;;;57.22;28.25;;;1.50;99.90;;;;;;5113152;28;20069;-66
2020/12/02 03:52:16;;;;;;;51.22;27.52;;;1.50;99.90;;;;;;5111877;28;20478;-66
2020/12/02 03:54:43;;;;;;;54.53;27.25;;;1.50;99.90;;;;;;5112563;28;20051;-67
2020/12/02 03:57:09;;;;;;;53.15;26.45;;;1.50;99.90;;;;;;5111337;28;20500;-66
2020/12/02 03:59:36;;;;;;;56.20;28.02;;;1.40;99.90;;;;;;5112697;28;20048;-70
2020/12/02 04:02:03;;;;;;;58.83;28.23;;;1.40;99.90;;;;;;5111345;28;20182;-69
2020/12/02 04:04:30;;;;;;;58.15;28.80;;;1.40;99.90;;;;;;5112703;28;20046;-65
2020/12/02 04:06:57;;;;;;;58.47;28.70;;;1.40;99.90;;;;;;5086060;28;20047;-65
2020/12/02 04:09:23;;;;;;;60.28;29.98;;;1.40;99.90;;;;;;5112073;28;20051;-65
2020/12/02 04:11:50;;;;;;;65.88;30.27;;;1.30;99.90;;;;;;5112331;28;20074;-64
2020/12/02 04:14:16;;;;;;;54.17;28.40;;;1.30;99.90;;;;;;5111864;28;20050;-66
2020/12/02 04:16:43;;;;;;;54.10;28.17;;;1.30;99.90;;;;;;5111716;28;20035;-64
2020/12/02 04:19:09;;;;;;;55.25;27.77;;;1.30;99.90;;;;;;5112518;28;20039;-64
2020/12/02 04:21:35;;;;;;;53.40;28.20;;;1.30;99.90;;;;;;5111218;28;20151;-64
2020/12/02 04:24:02;;;;;;;53.72;26.75;;;1.30;99.90;;;;;;5109458;28;20491;-65
2020/12/02 04:26:28;;;;;;;54.53;28.38;;;1.30;99.90;;;;;;5111472;28;20039;-64
2020/12/02 04:28:55;;;;;;;51.92;26.42;;;1.40;99.90;;;;;;5110992;28;20122;-70
2020/12/02 04:31:22;;;;;;;49.97;26.00;;;1.30;99.90;;;;;;5093917;28;20043;-66
2020/12/02 04:33:49;;;;;;;47.90;25.02;;;1.40;99.90;;;;;;5111077;28;20051;-67
2020/12/02 04:36:15;;;;;;;55.38;26.02;;;1.40;99.90;;;;;;5110969;28;20473;-68
2020/12/02 04:38:41;;;;;;;50.70;25.77;;;1.40;99.90;;;;;;5089106;28;20063;-67
2020/12/02 04:41:16;;;;;;;51.03;25.40;;;1.40;99.90;;;;;;5107450;28;20040;-67
2020/12/02 04:43:46;;;;;;;52.08;26.20;;;1.40;99.90;;;;;;5110579;28;20342;-68
2020/12/02 04:46:20;;;;;;;48.95;24.98;;;1.40;99.90;;;;;;5095940;28;20051;-67
2020/12/02 04:48:51;;;;;;;53.67;26.23;;;1.50;99.90;;;;;;5110661;28;20054;-66
2020/12/02 04:51:24;;;;;;;47.40;25.63;;;1.50;99.90;;;;;;5110415;28;20039;-67
2020/12/02 04:53:57;;;;;;;46.60;25.30;;;1.40;99.90;;;;;;5111041;28;20079;-67
2020/12/02 04:56:26;;;;;;;49.13;25.90;;;1.40;99.90;;;;;;5108550;28;20043;-67
2020/12/02 04:58:56;;;;;;;52.90;26.85;;;1.40;99.90;;;;;;5110842;28;20048;-67
2020/12/02 05:01:32;;;;;;;51.42;25.95;;;1.40;99.90;;;;;;5110461;28;20043;-67
2020/12/02 05:04:05;;;;;;;50.80;26.92;;;1.40;99.90;;;;;;5110827;28;20047;-67
2020/12/02 05:06:59;;;;;;;53.15;28.35;;;1.40;99.90;;;;;;5104243;27;20118;-67
2020/12/02 05:09:26;;;;;;;50.95;26.10;;;1.30;99.90;;;;;;5103293;28;20048;-67
2020/12/02 05:11:58;;;;;;;58.65;29.05;;;1.30;99.90;;;;;;5110537;28;20051;-67
2020/12/02 05:14:39;;;;;;;55.55;27.58;;;1.30;99.90;;;;;;5111844;28;20046;-67
2020/12/02 05:17:21;;;;;;;52.10;24.88;;;1.20;99.90;;;;;;5109984;28;20161;-68
2020/12/02 05:20:02;;;;;;;57.17;27.30;;;1.10;99.90;;;;;;5110565;28;20048;-67
2020/12/02 05:22:32;;;;;;;50.80;26.58;;;1.10;99.90;;;;;;5111366;28;20811;-67
2020/12/02 05:24:59;;;;;;;52.53;27.52;;;1.10;99.90;;;;;;5108663;28;20040;-67
2020/12/02 05:27:33;;;;;;;53.08;26.88;;;1.00;99.90;;;;;;5111031;28;20127;-67
2020/12/02 05:30:18;;;;;;;50.67;26.30;;;1.00;99.90;;;;;;5109584;28;20051;-67
2020/12/02 05:33:07;;;;;;;51.40;26.67;;;1.00;99.90;;;;;;5108458;28;20130;-67
2020/12/02 05:35:35;;;;;;;58.88;28.85;;;1.10;99.90;;;;;;5089701;28;20062;-67
2020/12/02 05:38:06;;;;;;;59.47;29.70;;;1.10;99.90;;;;;;5109095;28;20052;-67
2020/12/02 05:40:33;;;;;;;53.47;27.52;;;1.20;99.90;;;;;;5107515;28;20486;-67
2020/12/02 05:43:17;;;;;;;53.15;26.00;;;1.20;99.90;;;;;;5110926;28;20671;-67
2020/12/02 05:45:48;;;;;;;50.63;25.38;;;1.20;99.90;;;;;;5109509;28;20074;-67
2020/12/02 05:48:30;;;;;;;55.47;27.60;;;1.30;99.90;;;;;;5110018;28;20465;-68
2020/12/02 05:50:56;;;;;;;51.83;26.40;;;1.30;99.90;;;;;;5110436;28;20071;-68
2020/12/02 05:53:31;;;;;;;47.25;23.92;;;1.30;99.90;;;;;;5106876;28;20043;-66
2020/12/02 05:55:59;;;;;;;46.08;23.05;;;1.30;99.90;;;;;;5105903;28;20058;-66
2020/12/02 05:58:29;;;;;;;46.10;24.13;;;1.30;99.90;;;;;;5109436;28;20039;-66
2020/12/02 06:00:56;;;;;;;45.55;24.02;;;1.40;99.90;;;;;;5109700;28;20043;-67
2020/12/02 06:03:35;;;;;;;45.45;21.92;;;1.40;99.90;;;;;;5110243;28;20069;-66
2020/12/02 06:06:07;;;;;;;41.17;21.23;;;1.40;99.90;;;;;;5110379;28;20051;-67
2020/12/02 06:08:45;;;;;;;43.28;22.67;;;1.30;99.90;;;;;;5110158;28;20465;-67
2020/12/02 06:11:15;;;;;;;43.55;22.23;;;1.30;99.90;;;;;;5110547;28;20515;-67
2020/12/02 06:13:57;;;;;;;45.13;22.02;;;1.30;99.90;;;;;;5109925;28;20086;-68
2020/12/02 06:16:40;;;;;;;48.10;23.73;;;1.30;99.90;;;;;;5109199;28;20051;-68
2020/12/02 06:19:25;;;;;;;50.60;24.17;;;1.30;99.90;;;;;;5109514;28;20040;-67
2020/12/02 06:22:00;;;;;;;46.03;24.35;;;1.30;99.90;;;;;;5110293;28;20056;-67
2020/12/02 06:24:41;;;;;;;52.88;26.05;;;1.40;99.90;;;;;;5109544;28;20501;-66
2020/12/02 06:27:14;;;;;;;51.03;25.70;;;1.30;99.90;;;;;;5108653;28;20105;-67
2020/12/02 06:29:46;;;;;;;54.30;26.60;;;1.30;99.90;;;;;;5110214;28;20131;-67
2020/12/02 06:32:15;;;;;;;;;;;1.30;99.90;;;;;;5107642;28;20047;-67
2020/12/02 06:34:43;;;;;;;52.53;24.98;;;1.30;99.90;;;;;;5108960;28;20022;-67
2020/12/02 06:37:29;;;;;;;52.88;26.08;;;1.30;99.90;;;;;;5109730;28;20046;-67
2020/12/02 06:39:59;;;;;;;54.17;26.23;;;1.30;99.90;;;;;;5089981;28;20054;-68
2020/12/02 06:42:30;;;;;;;56.13;26.98;;;1.30;99.90;;;;;;5114259;28;20497;-68
2020/12/02 06:45:24;;;;;;;56.95;27.15;;;1.40;99.90;;;;;;5107837;28;20141;-67
2020/12/02 06:47:50;;;;;;;51.90;25.52;;;1.40;99.90;;;;;;5110365;28;20051;-67
2020/12/02 06:50:21;;;;;;;57.15;26.05;;;1.30;99.90;;;;;;5114374;28;20044;-67
2020/12/02 06:52:47;;;;;;;55.72;26.42;;;1.30;99.90;;;;;;5114072;28;20067;-67
2020/12/02 06:55:19;;;;;;;52.83;25.73;;;1.30;99.90;;;;;;5094346;28;20780;-67
2020/12/02 06:57:47;;;;;;;55.15;28.13;;;1.20;99.90;;;;;;5094797;28;20043;-66
2020/12/02 07:00:20;;;;;;;61.63;28.48;;;1.20;99.90;;;;;;5113741;28;20048;-66
2020/12/02 07:03:18;;;;;;;61.70;28.77;;;1.20;99.90;;;;;;5113885;28;20378;-67
2020/12/02 07:05:45;;;;;;;59.58;26.67;;;1.20;99.90;;;;;;5103016;28;20470;-67
2020/12/02 07:08:31;;;;;;;63.58;27.58;;;1.20;99.90;;;;;;5113617;28;20052;-67
2020/12/02 07:11:05;;;;;;;54.30;26.05;;;1.10;99.90;;;;;;5113544;28;20050;-67
2020/12/02 07:13:37;;;;;;;53.10;26.35;;;1.10;99.90;;;;;;5112760;28;20600;-67
2020/12/02 07:16:28;;;;;;;50.35;25.15;;;1.10;99.90;;;;;;5094218;28;20105;-69
2020/12/02 07:19:06;;;;;;;53.80;25.98;;;1.10;99.90;;;;;;5110770;28;20054;-67
2020/12/02 07:21:44;;;;;;;56.53;28.23;;;1.10;99.90;;;;;;5112807;28;20398;-69
2020/12/02 07:24:36;;;;;;;58.22;25.60;;;1.00;99.90;;;;;;5108814;28;20046;-67
2020/12/02 07:27:05;;;;;;;58.67;27.30;;;1.00;99.90;;;;;;5104328;28;20116;-67
2020/12/02 07:29:32;;;;;;;61.42;28.20;;;1.00;99.90;;;;;;5113556;28;20258;-67
2020/12/02 07:32:21;;;;;;;58.42;27.48;;;1.00;99.90;;;;;;5112782;27;20047;-67
2020/12/02 07:34:47;;;;;;;56.70;25.60;;;1.00;99.90;;;;;;5104691;28;20048;-67
2020/12/02 07:37:20;;;;;;;62.40;27.73;;;1.00;99.90;;;;;;5112386;27;20043;-68
2020/12/02 07:39:53;;;;;;;58.05;26.92;;;1.10;99.90;;;;;;5112235;28;20063;-66
2020/12/02 07:42:39;;;;;;;56.25;24.90;;;1.00;99.90;;;;;;5113057;28;20039;-67
2020/12/02 07:45:29;;;;;;;60.70;27.02;;;1.10;99.90;;;;;;5106336;28;20051;-67
2020/12/02 07:48:19;;;;;;;60.13;26.60;;;1.10;99.90;;;;;;5090676;28;20040;-67
2020/12/02 07:50:53;;;;;;;54.53;25.90;;;1.10;99.90;;;;;;5111938;28;20044;-66
2020/12/02 07:53:43;;;;;;;55.13;25.30;;;1.10;99.90;;;;;;5112549;28;20051;-66
2020/12/02 07:56:40;;;;;;;52.08;25.13;;;1.00;99.90;;;;;;5093748;28;20062;-66
2020/12/02 07:59:15;;;;;;;54.90;25.25;;;1.00;99.90;;;;;;5092365;27;20378;-67
2020/12/02 08:02:11;;;;;;;52.72;23.85;;;1.00;99.90;;;;;;5106797;27;20054;-67
2020/12/02 08:04:52;;;;;;;60.17;25.58;;;1.00;99.90;;;;;;5111354;28;20128;-67
2020/12/02 08:07:19;;;;;;;54.20;24.92;;;1.00;99.90;;;;;;5102950;28;20055;-67
2020/12/02 08:09:48;;;;;;;52.95;25.98;;;1.00;99.90;;;;;;5111214;27;20044;-67
2020/12/02 08:12:18;;;;;;;50.20;23.35;;;1.00;99.90;;;;;;5113232;28;20043;-67
2020/12/02 08:14:49;;;;;;;43.92;22.50;;;1.00;99.90;;;;;;5112833;28;20054;-67
2020/12/02 08:17:23;;;;;;;50.65;22.73;;;1.00;99.90;;;;;;5108523;28;20113;-67
2020/12/02 08:19:53;;;;;;;44.20;20.88;;;1.00;99.90;;;;;;5113176;28;20047;-67
2020/12/02 08:22:46;;;;;;;49.42;22.88;;;1.00;99.90;;;;;;5112448;28;20058;-67
2020/12/02 08:25:32;;;;;;;45.58;21.25;;;1.00;99.90;;;;;;5107516;28;20051;-67
2020/12/02 08:28:01;;;;;;;43.17;21.15;;;1.00;99.90;;;;;;5093682;28;20066;-68
2020/12/02 08:30:30;;;;;;;46.53;21.05;;;1.10;99.90;;;;;;5112116;28;20196;-68
2020/12/02 08:33:15;;;;;;;48.15;21.83;;;1.10;99.90;;;;;;5111853;28;20043;-67
2020/12/02 08:35:48;;;;;;;46.33;21.27;;;1.10;99.90;;;;;;5110992;28;20043;-67
2020/12/02 08:38:27;;;;;;;47.65;20.00;;;1.10;99.90;;;;;;5112901;28;20046;-69
2020/12/02 08:40:55;;;;;;;45.78;22.38;;;1.00;99.90;;;;;;5110837;28;20389;-68
2020/12/02 08:43:30;;;;;;;48.65;21.33;;;1.00;99.90;;;;;;5108997;28;20066;-67
2020/12/02 08:46:15;;;;;;;43.28;21.70;;;1.00;99.90;;;;;;5108055;28;20063;-67
2020/12/02 08:48:43;;;;;;;44.88;19.80;;;1.00;99.90;;;;;;5107932;27;20139;-68
2020/12/02 08:51:16;;;;;;;42.40;19.77;;;1.10;99.90;;;;;;5110429;28;20391;-67
2020/12/02 08:53:43;;;;;;;40.70;19.83;;;1.20;99.90;;;;;;5100618;28;20123;-67
2020/12/02 08:56:24;;;;;;;36.10;18.95;;;1.20;99.90;;;;;;5109522;28;20058;-68
2020/12/02 08:58:51;;;;;;;37.38;17.30;;;1.20;99.90;;;;;;5110724;28;20122;-67
2020/12/02 09:01:17;;;;;;;41.75;19.13;;;1.30;99.90;;;;;;5109273;28;20474;-67
2020/12/02 09:03:44;;;;;;;39.45;18.42;;;1.30;99.90;;;;;;5111219;28;20066;-67
2020/12/02 09:06:17;;;;;;;44.97;18.58;;;1.30;99.90;;;;;;5109438;28;20456;-67
2020/12/02 09:08:44;;;;;;;38.85;18.23;;;1.30;99.90;;;;;;5096936;28;20055;-67
2020/12/02 09:11:11;;;;;;;40.58;19.45;;;1.30;99.90;;;;;;5108349;28;20154;-67
2020/12/02 09:13:38;;;;;;;39.47;18.67;;;1.30;99.90;;;;;;5108754;28;20058;-67
2020/12/02 09:16:05;;;;;;;35.47;18.23;;;1.30;99.90;;;;;;5107512;28;20052;-67
2020/12/02 09:18:31;;;;;;;35.53;17.35;;;1.30;99.90;;;;;;5110415;28;20429;-67
2020/12/02 09:20:58;;;;;;;37.75;18.92;;;1.30;99.90;;;;;;5110392;28;20048;-66
2020/12/02 09:23:24;;;;;;;36.25;18.23;;;1.30;99.90;;;;;;5108783;28;20051;-68
2020/12/02 09:25:51;;;;;;;39.22;19.35;;;1.30;99.90;;;;;;5110061;28;20067;-67
2020/12/02 09:28:17;;;;;;;36.80;18.10;;;1.30;99.90;;;;;;5108719;28;20150;-67
2020/12/02 09:30:44;;;;;;;35.50;18.10;;;1.30;99.90;;;;;;5109418;28;20059;-67
2020/12/02 09:33:10;;;;;;;36.22;16.98;;;1.40;99.90;;;;;;5109040;28;20047;-67
2020/12/02 09:35:37;;;;;;;35.20;17.48;;;1.40;99.90;;;;;;5108083;28;20052;-67
2020/12/02 09:38:08;;;;;;;40.58;18.70;;;1.40;99.90;;;;;;5088884;28;20054;-67
2020/12/02 09:40:34;;;;;;;38.60;17.40;;;1.40;99.90;;;;;;5108208;28;20051;-68
2020/12/02 09:43:25;;;;;;;42.08;19.15;;;1.40;99.90;;;;;;5108113;28;20471;-68
2020/12/02 09:46:08;;;;;;;40.17;19.00;;;1.30;99.90;;;;;;5107583;28;20059;-68
2020/12/02 09:48:34;;;;;;;43.72;18.98;;;1.30;99.90;;;;;;5110286;28;20043;-68
2020/12/02 09:51:17;;;;;;;43.42;19.63;;;1.30;99.90;;;;;;5102125;28;20047;-67
2020/12/02 09:53:43;;;;;;;37.88;17.98;;;1.30;99.90;;;;;;5090564;28;20058;-68
2020/12/02 09:56:11;;;;;;;40.53;18.13;;;1.40;99.90;;;;;;5107228;28;20058;-68
2020/12/02 09:58:38;;;;;;;40.75;18.52;;;1.40;99.90;;;;;;5109151;28;20055;-68
2020/12/02 10:01:14;;;;;;;41.53;19.85;;;1.50;99.90;;;;;;5108234;28;20044;-65
2020/12/02 10:03:43;;;;;;;44.45;20.17;;;1.60;99.90;;;;;;5110251;28;20047;-66
2020/12/02 10:06:21;;;;;;;42.17;19.20;;;1.60;99.90;;;;;;5106569;28;20050;-65
2020/12/02 10:09:26;;;;;;;43.28;19.20;;;1.60;99.90;;;;;;5092002;28;20050;-66
2020/12/02 10:12:03;;;;;;;38.42;18.65;;;1.70;99.90;;;;;;5105627;28;20054;-66
2020/12/02 10:14:51;;;;;;;42.83;19.13;;;1.80;99.90;;;;;;5092099;28;20478;-67
2020/12/02 10:17:43;;;;;;;42.55;20.15;;;1.80;99.90;;;;;;5109831;28;20051;-66
2020/12/02 10:20:18;;;;;;;40.88;19.40;;;1.80;99.90;;;;;;5108682;28;20059;-67
2020/12/02 10:22:57;;;;;;;43.72;21.25;;;1.90;99.90;;;;;;5109280;28;20554;-66
2020/12/02 10:26:00;;;;;;;42.53;21.33;;;1.90;99.90;;;;;;5106648;28;20050;-66
2020/12/02 10:28:41;;;;;;;38.60;19.45;;;1.90;99.90;;;;;;5106385;28;20451;-68
2020/12/02 10:31:29;;;;;;;41.70;21.27;;;2.00;99.90;;;;;;5109135;28;20519;-67
2020/12/02 10:34:03;;;;;;;38.05;19.75;;;2.00;99.90;;;;;;5108209;28;20058;-67
2020/12/02 10:36:38;;;;;;;42.35;21.48;;;2.10;99.90;;;;;;5107841;28;20469;-65
2020/12/02 10:39:12;;;;;;;46.33;22.23;;;2.10;99.90;;;;;;5108584;28;20040;-67
2020/12/02 10:41:57;;;;;;;43.17;22.00;;;2.20;99.90;;;;;;5096808;28;20058;-65
2020/12/02 10:44:41;;;;;;;46.78;20.90;;;2.20;99.90;;;;;;5107473;28;20051;-65
2020/12/02 10:47:20;;;;;;;43.38;22.73;;;2.20;99.90;;;;;;5090989;28;20415;-66
2020/12/02 10:49:47;;;;;;;45.50;22.98;;;2.20;99.90;;;;;;5109271;28;20067;-65
2020/12/02 10:52:16;;;;;;;43.22;21.75;;;2.10;99.90;;;;;;5109180;28;20112;-66
2020/12/02 10:54:47;;;;;;;41.67;22.20;;;2.10;99.90;;;;;;5109900;28;20127;-66
2020/12/02 10:57:17;;;;;;;42.67;21.67;;;2.00;99.90;;;;;;5107639;28;20040;-66
2020/12/02 10:59:45;;;;;;;44.88;22.92;;;1.90;99.90;;;;;;5109109;28;20048;-65
2020/12/02 11:02:19;;;;;;;41.65;22.10;;;1.90;99.90;;;;;;5105317;28;20050;-66
2020/12/02 11:04:47;;;;;;;43.20;21.17;;;1.80;99.90;;;;;;5109202;28;20054;-65
2020/12/02 11:07:41;;;;;;;39.00;20.90;;;1.70;99.90;;;;;;5084648;28;20081;-66
2020/12/02 11:10:32;;;;;;;42.70;23.40;;;1.70;99.90;;;;;;5106681;28;20066;-66
2020/12/02 11:13:22;;;;;;;39.45;21.40;;;1.70;99.90;;;;;;5084719;28;20430;-65
2020/12/02 11:16:14;;;;;;;42.83;23.15;;;1.70;99.90;;;;;;5108450;28;20130;-66
2020/12/02 11:18:47;;;;;;;;;;;1.50;99.90;;;;;;5110301;28;20054;-67
2020/12/02 11:21:26;;;;;;;;;;;1.40;99.90;;;;;;5109202;28;19967;-67
2020/12/02 11:24:05;;;;;;;42.28;21.88;;;1.40;99.90;;;;;;5109374;28;19934;-68
2020/12/02 11:26:37;;;;;;;44.47;22.83;;;1.50;99.90;;;;;;5094386;28;20413;-68
2020/12/02 11:29:12;;;;;;;43.25;23.77;;;1.50;99.90;;;;;;5107038;28;20090;-67
2020/12/02 11:31:51;;;;;;;45.80;23.45;;;1.50;99.90;;;;;;5095103;28;20485;-68
2020/12/02 11:34:42;;;;;;;41.95;22.20;;;1.50;99.90;;;;;;5111913;28;20048;-66
2020/12/02 11:37:19;;;;;;;48.38;23.30;;;1.50;99.90;;;;;;5113176;28;20429;-66
2020/12/02 11:39:54;;;;;;;40.22;22.02;;;1.50;99.90;;;;;;5112836;28;20077;-66
2020/12/02 11:42:40;;;;;;;42.63;21.90;;;1.50;99.90;;;;;;5112962;28;20081;-66
2020/12/02 11:45:21;;;;;;;45.22;23.83;;;1.50;99.90;;;;;;5107873;28;20040;-66
2020/12/02 11:47:57;;;;;;;47.15;22.90;;;1.60;99.90;;;;;;5113070;28;20043;-67
2020/12/02 11:50:29;;;;;;;47.35;22.92;;;1.70;99.90;;;;;;5113136;28;20066;-66
2020/12/02 11:53:02;;;;;;;41.25;22.65;;;1.60;99.90;;;;;;5111534;28;20043;-66
2020/12/02 11:55:31;;;;;;;43.20;23.92;;;1.60;99.90;;;;;;5111329;28;20467;-66
2020/12/02 11:57:59;;;;;;;42.03;23.08;;;1.60;99.90;;;;;;5110896;28;20377;-68
2020/12/02 12:00:26;;;;;;;40.65;22.88;;;1.70;99.90;;;;;;5113072;28;20044;-68
2020/12/02 12:03:16;;;;;;;39.17;22.27;;;1.70;99.90;;;;;;5112047;28;20763;-67
2020/12/02 12:06:00;;;;;;;37.92;21.73;;;1.80;99.90;;;;;;5105808;28;20393;-64
2020/12/02 12:08:50;;;;;;;42.15;22.75;;;1.90;99.90;;;;;;5111325;28;20054;-65
2020/12/02 12:11:31;;;;;;;41.70;22.38;;;1.80;99.90;;;;;;5112339;28;20367;-66
2020/12/02 12:14:01;;;;;;;40.38;22.52;;;1.70;99.90;;;;;;5104283;28;20409;-65
2020/12/02 12:16:36;;;;;;;43.03;23.15;;;1.60;99.90;;;;;;5109868;28;20044;-66
2020/12/02 12:19:11;;;;;;;43.85;24.55;;;1.60;99.90;;;;;;5094730;28;20047;-66
2020/12/02 12:21:51;;;;;;;40.80;23.25;;;1.60;99.90;;;;;;5111997;28;20772;-66
2020/12/02 12:24:18;;;;;;;40.33;22.63;;;1.60;99.90;;;;;;5111449;28;20062;-65
2020/12/02 12:26:52;;;;;;;39.00;23.00;;;1.60;99.90;;;;;;5093153;28;20051;-66
2020/12/02 12:29:19;;;;;;;37.42;21.95;;;1.60;99.90;;;;;;5111919;28;20713;-69
2020/12/02 12:32:09;;;;;;;35.92;20.38;;;1.70;99.90;;;;;;5110604;28;20299;-66
2020/12/02 12:34:45;;;;;;;36.42;21.42;;;1.70;99.90;;;;;;5093281;28;20054;-65
2020/12/02 12:37:37;;;;;;;39.22;23.58;;;1.60;99.90;;;;;;5110918;28;20044;-64
2020/12/02 12:40:06;;;;;;;;;;;1.50;99.90;;;;;;5109569;28;20516;-65
2020/12/02 12:42:38;;;;;;;39.15;21.55;;;1.50;99.90;;;;;;5111855;28;19924;-65
2020/12/02 12:45:12;;;;;;;44.50;24.17;;;1.50;99.90;;;;;;5109898;28;20046;-66
2020/12/02 12:47:42;;;;;;;38.67;21.40;;;1.50;99.90;;;;;;5110607;28;20059;-65
2020/12/02 12:50:10;;;;;;;37.53;23.33;;;1.60;99.90;;;;;;5110012;28;20048;-66
2020/12/02 12:52:45;;;;;;;38.53;22.45;;;1.50;99.90;;;;;;5093329;28;20051;-66
2020/12/02 12:55:14;;;;;;;40.03;23.55;;;1.50;99.90;;;;;;5111204;28;20453;-66
2020/12/02 12:57:47;;;;;;;42.22;23.42;;;1.40;99.90;;;;;;5103897;28;20043;-66
2020/12/02 13:00:15;;;;;;;40.90;22.98;;;1.40;99.90;;;;;;5089038;28;20055;-66
2020/12/02 13:02:42;;;;;;;38.95;23.52;;;1.40;99.90;;;;;;5110903;28;20051;-66
2020/12/02 13:05:12;;;;;;;38.28;23.15;;;1.40;99.90;;;;;;5111552;28;20431;-65
2020/12/02 13:07:43;;;;;;;39.67;25.50;;;1.40;99.90;;;;;;5110675;28;20452;-66
2020/12/02 13:10:34;;;;;;;44.50;24.58;;;1.30;99.90;;;;;;5111399;28;20051;-66
2020/12/02 13:13:34;;;;;;;43.63;24.27;;;1.30;99.90;;;;;;5110885;28;20044;-67